sensor_id;sensor_type;location;lat;lon;timestamp;P1;durP1;ratioP1;P2;durP2;ratioP2
11614;SDS011;5863;52.832;4.758;2023-01-25T00:01:02;31.33;;;22.37;;
11614;SDS011;5863;52.832;4.758;2023-01-25T00:03:29;34.43;;;23.40;;
11614;SDS011;5863;52.832;4.758;2023-01-25T00:05:59;34.53;;;22.60;;
11614;SDS011;5863;52.832;4.758;2023-01-25T00:08:26;32.80;;;22.80;;
11614;SDS011;5863;52.832;4.758;2023-01-25T00:10:53;34.40;;;24.33;;
11614;SDS011;5863;52.832;4.758;2023-01-25T00:13:21;37.00;;;23.93;;
11614;SDS011;5863;52.832;4.758;2023-01-25T00:15:48;31.97;;;22.50;;
11614;SDS011;5863;52.832;4.758;2023-01-25T00:18:14;34.63;;;23.80;;
11614;SDS011;5863;52.832;4.758;2023-01-25T00:20:41;36.80;;;24.57;;
11614;SDS011;5863;52.832;4.758;2023-01-25T00:23:09;32.77;;;22.87;;
11614;SDS011;5863;52.832;4.758;2023-01-25T00:25:35;35.87;;;23.47;;
11614;SDS011;5863;52.832;4.758;2023-01-25T00:28:02;34.63;;;23.17;;
11614;SDS011;5863;52.832;4.758;2023-01-25T00:30:31;33.17;;;22.33;;
11614;SDS011;5863;52.832;4.758;2023-01-25T00:33:01;32.30;;;22.07;;
11614;SDS011;5863;52.832;4.758;2023-01-25T00:35:32;35.47;;;23.17;;
11614;SDS011;5863;52.832;4.758;2023-01-25T00:38:00;30.30;;;21.20;;
11614;SDS011;5863;52.832;4.758;2023-01-25T00:40:28;29.00;;;20.73;;
11614;SDS011;5863;52.832;4.758;2023-01-25T00:42:54;30.57;;;21.47;;
11614;SDS011;5863;52.832;4.758;2023-01-25T00:45:21;30.30;;;21.63;;
11614;SDS011;5863;52.832;4.758;2023-01-25T00:47:49;31.47;;;20.63;;
11614;SDS011;5863;52.832;4.758;2023-01-25T00:50:19;29.80;;;20.17;;
11614;SDS011;5863;52.832;4.758;2023-01-25T00:52:46;29.17;;;19.83;;
11614;SDS011;5863;52.832;4.758;2023-01-25T00:55:12;29.23;;;19.87;;
11614;SDS011;5863;52.832;4.758;2023-01-25T00:57:39;30.93;;;20.43;;
11614;SDS011;5863;52.832;4.758;2023-01-25T01:00:06;29.47;;;20.37;;
11614;SDS011;5863;52.832;4.758;2023-01-25T01:02:34;29.60;;;20.20;;
11614;SDS011;5863;52.832;4.758;2023-01-25T01:05:02;25.50;;;18.50;;
11614;SDS011;5863;52.832;4.758;2023-01-25T01:07:29;28.70;;;19.87;;
11614;SDS011;5863;52.832;4.758;2023-01-25T01:09:55;29.50;;;20.47;;
11614;SDS011;5863;52.832;4.758;2023-01-25T01:12:23;29.60;;;19.60;;
11614;SDS011;5863;52.832;4.758;2023-01-25T01:14:49;27.77;;;18.77;;
11614;SDS011;5863;52.832;4.758;2023-01-25T01:17:16;29.20;;;19.10;;
11614;SDS011;5863;52.832;4.758;2023-01-25T01:19:43;28.87;;;19.37;;
11614;SDS011;5863;52.832;4.758;2023-01-25T01:22:11;28.50;;;19.20;;
11614;SDS011;5863;52.832;4.758;2023-01-25T01:24:38;30.40;;;19.27;;
11614;SDS011;5863;52.832;4.758;2023-01-25T01:27:05;28.93;;;20.17;;
11614;SDS011;5863;52.832;4.758;2023-01-25T01:29:31;30.80;;;19.50;;
11614;SDS011;5863;52.832;4.758;2023-01-25T01:31:59;30.57;;;19.80;;
11614;SDS011;5863;52.832;4.758;2023-01-25T01:34:26;28.57;;;19.90;;
11614;SDS011;5863;52.832;4.758;2023-01-25T01:36:52;29.87;;;20.03;;
11614;SDS011;5863;52.832;4.758;2023-01-25T01:39:23;29.53;;;20.17;;
11614;SDS011;5863;52.832;4.758;2023-01-25T01:41:50;29.87;;;20.50;;
11614;SDS011;5863;52.832;4.758;2023-01-25T01:44:17;29.03;;;20.00;;
11614;SDS011;5863;52.832;4.758;2023-01-25T01:46:48;32.40;;;21.73;;
11614;SDS011;5863;52.832;4.758;2023-01-25T01:49:18;32.67;;;21.27;;
11614;SDS011;5863;52.832;4.758;2023-01-25T01:51:49;32.80;;;21.13;;
11614;SDS011;5863;52.832;4.758;2023-01-25T01:54:17;30.73;;;20.60;;
11614;SDS011;5863;52.832;4.758;2023-01-25T01:56:50;30.40;;;20.33;;
11614;SDS011;5863;52.832;4.758;2023-01-25T01:59:20;34.20;;;22.07;;
11614;SDS011;5863;52.832;4.758;2023-01-25T02:01:50;30.97;;;20.50;;
11614;SDS011;5863;52.832;4.758;2023-01-25T02:04:17;28.97;;;19.27;;
11614;SDS011;5863;52.832;4.758;2023-01-25T02:06:49;34.13;;;21.90;;
11614;SDS011;5863;52.832;4.758;2023-01-25T02:09:20;37.20;;;23.17;;
11614;SDS011;5863;52.832;4.758;2023-01-25T02:11:51;35.93;;;22.83;;
11614;SDS011;5863;52.832;4.758;2023-01-25T02:14:19;32.60;;;21.87;;
11614;SDS011;5863;52.832;4.758;2023-01-25T02:16:49;32.73;;;22.10;;
11614;SDS011;5863;52.832;4.758;2023-01-25T02:19:16;33.67;;;22.27;;
11614;SDS011;5863;52.832;4.758;2023-01-25T02:21:52;32.27;;;21.33;;
11614;SDS011;5863;52.832;4.758;2023-01-25T02:24:24;33.60;;;22.23;;
11614;SDS011;5863;52.832;4.758;2023-01-25T02:26:56;31.37;;;21.57;;
11614;SDS011;5863;52.832;4.758;2023-01-25T02:29:23;31.10;;;21.30;;
11614;SDS011;5863;52.832;4.758;2023-01-25T02:31:57;33.97;;;22.37;;
11614;SDS011;5863;52.832;4.758;2023-01-25T02:34:25;34.30;;;21.77;;
11614;SDS011;5863;52.832;4.758;2023-01-25T02:36:51;32.27;;;21.57;;
11614;SDS011;5863;52.832;4.758;2023-01-25T02:39:18;31.60;;;21.30;;
11614;SDS011;5863;52.832;4.758;2023-01-25T02:41:48;31.73;;;21.27;;
11614;SDS011;5863;52.832;4.758;2023-01-25T02:44:17;32.83;;;21.10;;
11614;SDS011;5863;52.832;4.758;2023-01-25T02:46:45;36.57;;;22.63;;
11614;SDS011;5863;52.832;4.758;2023-01-25T02:49:18;36.00;;;21.30;;
11614;SDS011;5863;52.832;4.758;2023-01-25T02:51:46;32.60;;;21.63;;
11614;SDS011;5863;52.832;4.758;2023-01-25T02:54:16;30.97;;;20.13;;
11614;SDS011;5863;52.832;4.758;2023-01-25T02:56:44;32.83;;;20.50;;
11614;SDS011;5863;52.832;4.758;2023-01-25T02:59:11;33.03;;;20.80;;
11614;SDS011;5863;52.832;4.758;2023-01-25T03:01:39;33.67;;;21.10;;
11614;SDS011;5863;52.832;4.758;2023-01-25T03:04:07;34.20;;;22.33;;
11614;SDS011;5863;52.832;4.758;2023-01-25T03:06:34;37.23;;;22.90;;
11614;SDS011;5863;52.832;4.758;2023-01-25T03:09:02;35.07;;;22.60;;
11614;SDS011;5863;52.832;4.758;2023-01-25T03:11:29;38.10;;;22.97;;
11614;SDS011;5863;52.832;4.758;2023-01-25T03:13:56;36.67;;;22.77;;
11614;SDS011;5863;52.832;4.758;2023-01-25T03:16:23;39.07;;;24.50;;
11614;SDS011;5863;52.832;4.758;2023-01-25T03:18:52;37.00;;;23.57;;
11614;SDS011;5863;52.832;4.758;2023-01-25T03:21:20;38.43;;;23.60;;
11614;SDS011;5863;52.832;4.758;2023-01-25T03:23:47;38.03;;;22.63;;
11614;SDS011;5863;52.832;4.758;2023-01-25T03:26:21;36.90;;;22.77;;
11614;SDS011;5863;52.832;4.758;2023-01-25T03:28:48;41.10;;;22.73;;
11614;SDS011;5863;52.832;4.758;2023-01-25T03:31:15;39.70;;;23.83;;
11614;SDS011;5863;52.832;4.758;2023-01-25T03:33:43;40.83;;;23.70;;
11614;SDS011;5863;52.832;4.758;2023-01-25T03:36:11;39.33;;;23.03;;
11614;SDS011;5863;52.832;4.758;2023-01-25T03:38:38;38.63;;;23.40;;
11614;SDS011;5863;52.832;4.758;2023-01-25T03:41:05;39.90;;;24.07;;
11614;SDS011;5863;52.832;4.758;2023-01-25T03:43:31;40.83;;;23.83;;
11614;SDS011;5863;52.832;4.758;2023-01-25T03:45:59;43.47;;;25.13;;
11614;SDS011;5863;52.832;4.758;2023-01-25T03:48:27;45.57;;;26.73;;
11614;SDS011;5863;52.832;4.758;2023-01-25T03:50:55;46.27;;;26.40;;
11614;SDS011;5863;52.832;4.758;2023-01-25T03:53:24;43.57;;;24.93;;
11614;SDS011;5863;52.832;4.758;2023-01-25T03:55:53;48.50;;;26.43;;
11614;SDS011;5863;52.832;4.758;2023-01-25T03:58:21;46.47;;;25.33;;
11614;SDS011;5863;52.832;4.758;2023-01-25T04:00:48;47.33;;;25.80;;
11614;SDS011;5863;52.832;4.758;2023-01-25T04:03:14;48.30;;;26.50;;
11614;SDS011;5863;52.832;4.758;2023-01-25T04:05:43;47.03;;;27.57;;
11614;SDS011;5863;52.832;4.758;2023-01-25T04:08:11;46.57;;;27.17;;
11614;SDS011;5863;52.832;4.758;2023-01-25T04:10:39;48.80;;;27.30;;
11614;SDS011;5863;52.832;4.758;2023-01-25T04:13:05;52.40;;;27.90;;
11614;SDS011;5863;52.832;4.758;2023-01-25T04:15:32;53.67;;;29.47;;
11614;SDS011;5863;52.832;4.758;2023-01-25T04:18:00;51.20;;;28.30;;
11614;SDS011;5863;52.832;4.758;2023-01-25T04:20:27;51.73;;;29.43;;
11614;SDS011;5863;52.832;4.758;2023-01-25T04:22:53;55.40;;;29.43;;
11614;SDS011;5863;52.832;4.758;2023-01-25T04:25:20;54.47;;;29.23;;
11614;SDS011;5863;52.832;4.758;2023-01-25T04:27:49;51.70;;;28.67;;
11614;SDS011;5863;52.832;4.758;2023-01-25T04:30:16;55.93;;;29.90;;
11614;SDS011;5863;52.832;4.758;2023-01-25T04:32:43;57.37;;;29.47;;
11614;SDS011;5863;52.832;4.758;2023-01-25T04:35:09;57.77;;;31.00;;
11614;SDS011;5863;52.832;4.758;2023-01-25T04:37:36;54.03;;;29.57;;
11614;SDS011;5863;52.832;4.758;2023-01-25T04:40:03;58.20;;;30.67;;
11614;SDS011;5863;52.832;4.758;2023-01-25T04:42:30;63.37;;;32.03;;
11614;SDS011;5863;52.832;4.758;2023-01-25T04:44:58;62.10;;;32.93;;
11614;SDS011;5863;52.832;4.758;2023-01-25T04:47:25;60.03;;;30.57;;
11614;SDS011;5863;52.832;4.758;2023-01-25T04:49:52;57.23;;;30.33;;
11614;SDS011;5863;52.832;4.758;2023-01-25T04:52:18;59.70;;;31.53;;
11614;SDS011;5863;52.832;4.758;2023-01-25T04:54:45;59.13;;;31.17;;
11614;SDS011;5863;52.832;4.758;2023-01-25T04:57:12;64.17;;;33.03;;
11614;SDS011;5863;52.832;4.758;2023-01-25T04:59:38;58.90;;;32.50;;
11614;SDS011;5863;52.832;4.758;2023-01-25T05:02:06;67.50;;;34.90;;
11614;SDS011;5863;52.832;4.758;2023-01-25T05:04:33;62.53;;;31.97;;
11614;SDS011;5863;52.832;4.758;2023-01-25T05:07:00;64.23;;;32.87;;
11614;SDS011;5863;52.832;4.758;2023-01-25T05:09:27;59.60;;;31.67;;
11614;SDS011;5863;52.832;4.758;2023-01-25T05:11:54;70.23;;;34.83;;
11614;SDS011;5863;52.832;4.758;2023-01-25T05:14:21;64.47;;;33.00;;
11614;SDS011;5863;52.832;4.758;2023-01-25T05:16:48;65.07;;;33.77;;
11614;SDS011;5863;52.832;4.758;2023-01-25T05:19:16;65.20;;;33.70;;
11614;SDS011;5863;52.832;4.758;2023-01-25T05:21:42;65.90;;;33.77;;
11614;SDS011;5863;52.832;4.758;2023-01-25T05:24:24;66.00;;;33.30;;
11614;SDS011;5863;52.832;4.758;2023-01-25T05:26:51;65.10;;;34.13;;
11614;SDS011;5863;52.832;4.758;2023-01-25T05:29:30;64.23;;;33.60;;
11614;SDS011;5863;52.832;4.758;2023-01-25T05:31:59;64.67;;;34.20;;
11614;SDS011;5863;52.832;4.758;2023-01-25T05:34:28;62.67;;;33.87;;
11614;SDS011;5863;52.832;4.758;2023-01-25T05:36:55;66.27;;;33.83;;
11614;SDS011;5863;52.832;4.758;2023-01-25T05:39:22;63.77;;;34.80;;
11614;SDS011;5863;52.832;4.758;2023-01-25T05:41:49;67.23;;;34.90;;
11614;SDS011;5863;52.832;4.758;2023-01-25T05:44:16;66.77;;;33.73;;
11614;SDS011;5863;52.832;4.758;2023-01-25T05:46:43;63.30;;;35.00;;
11614;SDS011;5863;52.832;4.758;2023-01-25T05:49:10;64.53;;;34.33;;
11614;SDS011;5863;52.832;4.758;2023-01-25T05:51:38;67.00;;;35.17;;
11614;SDS011;5863;52.832;4.758;2023-01-25T05:54:05;67.37;;;35.17;;
11614;SDS011;5863;52.832;4.758;2023-01-25T05:56:33;67.93;;;35.10;;
11614;SDS011;5863;52.832;4.758;2023-01-25T05:59:00;66.70;;;35.43;;
11614;SDS011;5863;52.832;4.758;2023-01-25T06:01:27;63.37;;;34.33;;
11614;SDS011;5863;52.832;4.758;2023-01-25T06:03:54;61.27;;;33.73;;
11614;SDS011;5863;52.832;4.758;2023-01-25T06:06:24;61.17;;;33.10;;
11614;SDS011;5863;52.832;4.758;2023-01-25T06:08:52;64.63;;;35.53;;
11614;SDS011;5863;52.832;4.758;2023-01-25T06:11:19;60.93;;;33.43;;
11614;SDS011;5863;52.832;4.758;2023-01-25T06:13:47;65.70;;;35.20;;
11614;SDS011;5863;52.832;4.758;2023-01-25T06:16:14;66.13;;;34.00;;
11614;SDS011;5863;52.832;4.758;2023-01-25T06:18:41;64.50;;;35.27;;
11614;SDS011;5863;52.832;4.758;2023-01-25T06:21:09;62.73;;;33.57;;
11614;SDS011;5863;52.832;4.758;2023-01-25T06:23:36;66.10;;;34.07;;
11614;SDS011;5863;52.832;4.758;2023-01-25T06:26:05;68.73;;;35.70;;
11614;SDS011;5863;52.832;4.758;2023-01-25T06:28:34;61.77;;;33.50;;
11614;SDS011;5863;52.832;4.758;2023-01-25T06:31:02;69.83;;;35.00;;
11614;SDS011;5863;52.832;4.758;2023-01-25T06:33:30;63.90;;;35.00;;
11614;SDS011;5863;52.832;4.758;2023-01-25T06:36:01;60.83;;;33.90;;
11614;SDS011;5863;52.832;4.758;2023-01-25T06:38:28;64.83;;;35.63;;
11614;SDS011;5863;52.832;4.758;2023-01-25T06:40:57;64.80;;;34.97;;
11614;SDS011;5863;52.832;4.758;2023-01-25T06:43:26;62.07;;;35.50;;
11614;SDS011;5863;52.832;4.758;2023-01-25T06:45:56;62.40;;;34.73;;
11614;SDS011;5863;52.832;4.758;2023-01-25T06:48:24;67.60;;;36.43;;
11614;SDS011;5863;52.832;4.758;2023-01-25T06:50:54;63.33;;;34.53;;
11614;SDS011;5863;52.832;4.758;2023-01-25T06:53:23;60.70;;;34.83;;
11614;SDS011;5863;52.832;4.758;2023-01-25T06:55:55;63.13;;;35.40;;
11614;SDS011;5863;52.832;4.758;2023-01-25T06:58:23;60.73;;;33.10;;
11614;SDS011;5863;52.832;4.758;2023-01-25T07:00:51;59.67;;;32.97;;
11614;SDS011;5863;52.832;4.758;2023-01-25T07:03:18;61.37;;;34.53;;
11614;SDS011;5863;52.832;4.758;2023-01-25T07:05:44;61.90;;;33.87;;
11614;SDS011;5863;52.832;4.758;2023-01-25T07:08:13;58.70;;;33.47;;
11614;SDS011;5863;52.832;4.758;2023-01-25T07:10:40;60.50;;;32.93;;
11614;SDS011;5863;52.832;4.758;2023-01-25T07:13:06;55.40;;;31.10;;
11614;SDS011;5863;52.832;4.758;2023-01-25T07:15:39;52.50;;;31.47;;
11614;SDS011;5863;52.832;4.758;2023-01-25T07:18:07;58.67;;;32.70;;
11614;SDS011;5863;52.832;4.758;2023-01-25T07:20:33;58.43;;;32.50;;
11614;SDS011;5863;52.832;4.758;2023-01-25T07:23:00;55.43;;;31.67;;
11614;SDS011;5863;52.832;4.758;2023-01-25T07:25:30;62.20;;;34.37;;
11614;SDS011;5863;52.832;4.758;2023-01-25T07:27:56;59.97;;;32.60;;
11614;SDS011;5863;52.832;4.758;2023-01-25T07:30:24;56.33;;;31.40;;
11614;SDS011;5863;52.832;4.758;2023-01-25T07:32:51;59.97;;;32.07;;
11614;SDS011;5863;52.832;4.758;2023-01-25T07:35:19;61.03;;;32.73;;
11614;SDS011;5863;52.832;4.758;2023-01-25T07:37:46;57.37;;;33.53;;
11614;SDS011;5863;52.832;4.758;2023-01-25T07:40:12;58.13;;;32.90;;
11614;SDS011;5863;52.832;4.758;2023-01-25T07:42:39;58.90;;;33.17;;
11614;SDS011;5863;52.832;4.758;2023-01-25T07:45:07;62.57;;;33.07;;
11614;SDS011;5863;52.832;4.758;2023-01-25T07:47:34;58.63;;;32.60;;
11614;SDS011;5863;52.832;4.758;2023-01-25T07:50:01;53.43;;;31.23;;
11614;SDS011;5863;52.832;4.758;2023-01-25T07:52:29;56.80;;;31.40;;
11614;SDS011;5863;52.832;4.758;2023-01-25T07:54:58;57.53;;;32.03;;
11614;SDS011;5863;52.832;4.758;2023-01-25T07:57:24;59.43;;;32.57;;
11614;SDS011;5863;52.832;4.758;2023-01-25T07:59:52;58.00;;;31.80;;
11614;SDS011;5863;52.832;4.758;2023-01-25T08:02:19;53.00;;;31.53;;
11614;SDS011;5863;52.832;4.758;2023-01-25T08:04:46;57.27;;;31.73;;
11614;SDS011;5863;52.832;4.758;2023-01-25T08:07:15;53.67;;;30.50;;
11614;SDS011;5863;52.832;4.758;2023-01-25T08:09:43;56.57;;;31.07;;
11614;SDS011;5863;52.832;4.758;2023-01-25T08:12:10;52.73;;;30.40;;
11614;SDS011;5863;52.832;4.758;2023-01-25T08:14:36;51.60;;;30.10;;
11614;SDS011;5863;52.832;4.758;2023-01-25T08:17:03;53.47;;;30.37;;
11614;SDS011;5863;52.832;4.758;2023-01-25T08:19:30;59.43;;;31.27;;
11614;SDS011;5863;52.832;4.758;2023-01-25T08:21:56;53.47;;;30.60;;
11614;SDS011;5863;52.832;4.758;2023-01-25T08:24:23;54.37;;;29.70;;
11614;SDS011;5863;52.832;4.758;2023-01-25T08:26:51;55.77;;;29.37;;
11614;SDS011;5863;52.832;4.758;2023-01-25T08:29:19;55.50;;;31.03;;
11614;SDS011;5863;52.832;4.758;2023-01-25T08:31:45;54.67;;;29.40;;
11614;SDS011;5863;52.832;4.758;2023-01-25T08:34:12;54.33;;;30.17;;
11614;SDS011;5863;52.832;4.758;2023-01-25T08:36:39;54.00;;;29.67;;
11614;SDS011;5863;52.832;4.758;2023-01-25T08:39:06;58.33;;;32.57;;
11614;SDS011;5863;52.832;4.758;2023-01-25T08:41:35;50.17;;;28.50;;
11614;SDS011;5863;52.832;4.758;2023-01-25T08:44:04;55.07;;;30.50;;
11614;SDS011;5863;52.832;4.758;2023-01-25T08:46:31;49.47;;;28.53;;
11614;SDS011;5863;52.832;4.758;2023-01-25T08:48:59;54.57;;;29.90;;
11614;SDS011;5863;52.832;4.758;2023-01-25T08:51:27;53.47;;;29.10;;
11614;SDS011;5863;52.832;4.758;2023-01-25T08:53:55;50.33;;;29.67;;
11614;SDS011;5863;52.832;4.758;2023-01-25T08:56:22;50.83;;;29.50;;
11614;SDS011;5863;52.832;4.758;2023-01-25T08:58:49;51.93;;;30.47;;
11614;SDS011;5863;52.832;4.758;2023-01-25T09:01:17;53.63;;;29.13;;
11614;SDS011;5863;52.832;4.758;2023-01-25T09:03:45;57.37;;;30.87;;
11614;SDS011;5863;52.832;4.758;2023-01-25T09:06:13;54.13;;;30.17;;
11614;SDS011;5863;52.832;4.758;2023-01-25T09:08:40;50.90;;;29.73;;
11614;SDS011;5863;52.832;4.758;2023-01-25T09:11:08;53.67;;;29.10;;
11614;SDS011;5863;52.832;4.758;2023-01-25T09:13:36;50.63;;;30.43;;
11614;SDS011;5863;52.832;4.758;2023-01-25T09:16:08;53.33;;;29.47;;
11614;SDS011;5863;52.832;4.758;2023-01-25T09:18:37;49.13;;;28.40;;
11614;SDS011;5863;52.832;4.758;2023-01-25T09:21:07;55.23;;;31.27;;
11614;SDS011;5863;52.832;4.758;2023-01-25T09:23:35;55.70;;;31.00;;
11614;SDS011;5863;52.832;4.758;2023-01-25T09:26:02;55.33;;;30.67;;
11614;SDS011;5863;52.832;4.758;2023-01-25T09:28:30;54.67;;;30.43;;
11614;SDS011;5863;52.832;4.758;2023-01-25T09:30:59;53.20;;;29.93;;
11614;SDS011;5863;52.832;4.758;2023-01-25T09:33:27;57.67;;;29.80;;
11614;SDS011;5863;52.832;4.758;2023-01-25T09:35:56;54.03;;;30.67;;
11614;SDS011;5863;52.832;4.758;2023-01-25T09:38:23;56.17;;;31.53;;
11614;SDS011;5863;52.832;4.758;2023-01-25T09:40:54;57.33;;;31.40;;
11614;SDS011;5863;52.832;4.758;2023-01-25T09:43:33;58.97;;;31.27;;
11614;SDS011;5863;52.832;4.758;2023-01-25T09:46:25;53.80;;;31.47;;
11614;SDS011;5863;52.832;4.758;2023-01-25T09:49:02;52.83;;;30.43;;
11614;SDS011;5863;52.832;4.758;2023-01-25T09:51:41;52.73;;;30.50;;
11614;SDS011;5863;52.832;4.758;2023-01-25T09:54:19;52.23;;;29.50;;
11614;SDS011;5863;52.832;4.758;2023-01-25T09:56:46;53.30;;;30.93;;
11614;SDS011;5863;52.832;4.758;2023-01-25T09:59:17;52.77;;;29.40;;
11614;SDS011;5863;52.832;4.758;2023-01-25T10:01:50;55.03;;;30.93;;
11614;SDS011;5863;52.832;4.758;2023-01-25T10:04:20;56.90;;;31.37;;
11614;SDS011;5863;52.832;4.758;2023-01-25T10:06:51;58.53;;;32.23;;
11614;SDS011;5863;52.832;4.758;2023-01-25T10:09:27;54.47;;;31.53;;
11614;SDS011;5863;52.832;4.758;2023-01-25T10:12:05;56.73;;;30.60;;
11614;SDS011;5863;52.832;4.758;2023-01-25T10:14:40;55.87;;;30.93;;
11614;SDS011;5863;52.832;4.758;2023-01-25T10:17:10;53.90;;;30.30;;
11614;SDS011;5863;52.832;4.758;2023-01-25T10:19:42;53.90;;;30.40;;
11614;SDS011;5863;52.832;4.758;2023-01-25T10:22:20;57.50;;;30.73;;
11614;SDS011;5863;52.832;4.758;2023-01-25T10:24:53;53.40;;;30.97;;
11614;SDS011;5863;52.832;4.758;2023-01-25T10:27:38;52.83;;;29.67;;
11614;SDS011;5863;52.832;4.758;2023-01-25T10:30:19;53.60;;;29.87;;
11614;SDS011;5863;52.832;4.758;2023-01-25T10:32:50;55.77;;;30.97;;
11614;SDS011;5863;52.832;4.758;2023-01-25T10:35:20;55.27;;;30.43;;
11614;SDS011;5863;52.832;4.758;2023-01-25T10:37:51;52.03;;;29.73;;
11614;SDS011;5863;52.832;4.758;2023-01-25T10:40:20;53.93;;;31.27;;
11614;SDS011;5863;52.832;4.758;2023-01-25T10:42:50;56.13;;;31.07;;
11614;SDS011;5863;52.832;4.758;2023-01-25T10:45:21;55.37;;;30.47;;
11614;SDS011;5863;52.832;4.758;2023-01-25T10:47:48;56.43;;;31.33;;
11614;SDS011;5863;52.832;4.758;2023-01-25T10:53:20;53.73;;;30.07;;
11614;SDS011;5863;52.832;4.758;2023-01-25T10:55:57;53.57;;;30.50;;
11614;SDS011;5863;52.832;4.758;2023-01-25T10:58:32;53.37;;;30.03;;
11614;SDS011;5863;52.832;4.758;2023-01-25T11:01:01;53.80;;;31.20;;
11614;SDS011;5863;52.832;4.758;2023-01-25T11:03:35;58.27;;;31.93;;
11614;SDS011;5863;52.832;4.758;2023-01-25T11:06:03;53.63;;;30.90;;
11614;SDS011;5863;52.832;4.758;2023-01-25T11:08:33;52.30;;;30.27;;
11614;SDS011;5863;52.832;4.758;2023-01-25T11:13:51;57.47;;;32.03;;
11614;SDS011;5863;52.832;4.758;2023-01-25T11:16:26;50.70;;;30.60;;
11614;SDS011;5863;52.832;4.758;2023-01-25T11:18:58;54.83;;;30.83;;
11614;SDS011;5863;52.832;4.758;2023-01-25T11:21:27;56.23;;;31.23;;
11614;SDS011;5863;52.832;4.758;2023-01-25T11:24:09;55.23;;;31.60;;
11614;SDS011;5863;52.832;4.758;2023-01-25T11:26:42;52.90;;;31.43;;
11614;SDS011;5863;52.832;4.758;2023-01-25T11:29:13;54.27;;;30.70;;
11614;SDS011;5863;52.832;4.758;2023-01-25T11:31:43;54.73;;;31.43;;
11614;SDS011;5863;52.832;4.758;2023-01-25T11:34:11;54.30;;;31.63;;
11614;SDS011;5863;52.832;4.758;2023-01-25T11:36:46;56.67;;;31.90;;
11614;SDS011;5863;52.832;4.758;2023-01-25T11:39:27;53.67;;;30.60;;
11614;SDS011;5863;52.832;4.758;2023-01-25T11:42:10;55.30;;;31.43;;
11614;SDS011;5863;52.832;4.758;2023-01-25T11:47:50;58.53;;;32.20;;
11614;SDS011;5863;52.832;4.758;2023-01-25T11:50:27;56.67;;;31.83;;
11614;SDS011;5863;52.832;4.758;2023-01-25T11:53:02;57.90;;;34.07;;
11614;SDS011;5863;52.832;4.758;2023-01-25T11:55:46;56.83;;;32.13;;
11614;SDS011;5863;52.832;4.758;2023-01-25T11:58:23;57.73;;;33.20;;
11614;SDS011;5863;52.832;4.758;2023-01-25T12:01:04;59.93;;;32.10;;
11614;SDS011;5863;52.832;4.758;2023-01-25T12:06:55;57.17;;;31.33;;
11614;SDS011;5863;52.832;4.758;2023-01-25T12:09:28;61.57;;;32.40;;
11614;SDS011;5863;52.832;4.758;2023-01-25T12:12:08;57.10;;;32.50;;
11614;SDS011;5863;52.832;4.758;2023-01-25T12:14:45;59.80;;;33.60;;
11614;SDS011;5863;52.832;4.758;2023-01-25T12:17:22;59.27;;;32.93;;
11614;SDS011;5863;52.832;4.758;2023-01-25T12:20:03;61.47;;;34.00;;
11614;SDS011;5863;52.832;4.758;2023-01-25T12:22:44;57.67;;;32.90;;
11614;SDS011;5863;52.832;4.758;2023-01-25T12:25:25;56.63;;;33.20;;
11614;SDS011;5863;52.832;4.758;2023-01-25T12:28:02;66.90;;;33.63;;
11614;SDS011;5863;52.832;4.758;2023-01-25T12:30:38;59.20;;;33.93;;
11614;SDS011;5863;52.832;4.758;2023-01-25T12:33:11;60.80;;;33.23;;
11614;SDS011;5863;52.832;4.758;2023-01-25T12:35:41;60.43;;;34.63;;
11614;SDS011;5863;52.832;4.758;2023-01-25T12:38:14;58.47;;;34.60;;
11614;SDS011;5863;52.832;4.758;2023-01-25T12:40:46;60.47;;;33.87;;
11614;SDS011;5863;52.832;4.758;2023-01-25T12:43:20;61.47;;;33.63;;
11614;SDS011;5863;52.832;4.758;2023-01-25T12:45:52;59.63;;;33.83;;
11614;SDS011;5863;52.832;4.758;2023-01-25T12:48:20;56.43;;;33.13;;
11614;SDS011;5863;52.832;4.758;2023-01-25T12:50:51;57.43;;;33.40;;
11614;SDS011;5863;52.832;4.758;2023-01-25T12:53:22;61.97;;;34.33;;
11614;SDS011;5863;52.832;4.758;2023-01-25T12:55:51;57.57;;;33.57;;
11614;SDS011;5863;52.832;4.758;2023-01-25T12:58:22;60.57;;;34.77;;
11614;SDS011;5863;52.832;4.758;2023-01-25T13:00:55;59.63;;;33.33;;
11614;SDS011;5863;52.832;4.758;2023-01-25T13:03:28;56.90;;;33.00;;
11614;SDS011;5863;52.832;4.758;2023-01-25T13:06:02;60.77;;;33.10;;
11614;SDS011;5863;52.832;4.758;2023-01-25T13:08:42;57.73;;;33.30;;
11614;SDS011;5863;52.832;4.758;2023-01-25T13:11:15;60.20;;;33.80;;
11614;SDS011;5863;52.832;4.758;2023-01-25T13:13:49;58.27;;;33.17;;
11614;SDS011;5863;52.832;4.758;2023-01-25T13:16:23;60.37;;;34.23;;
11614;SDS011;5863;52.832;4.758;2023-01-25T13:18:58;56.20;;;33.27;;
11614;SDS011;5863;52.832;4.758;2023-01-25T13:21:38;55.67;;;33.80;;
11614;SDS011;5863;52.832;4.758;2023-01-25T13:24:15;55.77;;;33.07;;
11614;SDS011;5863;52.832;4.758;2023-01-25T13:30:00;58.60;;;32.73;;
11614;SDS011;5863;52.832;4.758;2023-01-25T13:35:28;56.43;;;33.07;;
11614;SDS011;5863;52.832;4.758;2023-01-25T13:37:57;58.43;;;32.60;;
11614;SDS011;5863;52.832;4.758;2023-01-25T13:40:27;56.57;;;32.37;;
11614;SDS011;5863;52.832;4.758;2023-01-25T13:42:57;54.03;;;33.70;;
11614;SDS011;5863;52.832;4.758;2023-01-25T13:45:29;61.40;;;33.83;;
11614;SDS011;5863;52.832;4.758;2023-01-25T13:48:00;56.30;;;32.97;;
11614;SDS011;5863;52.832;4.758;2023-01-25T13:50:37;56.53;;;33.10;;
11614;SDS011;5863;52.832;4.758;2023-01-25T13:53:16;55.90;;;32.87;;
11614;SDS011;5863;52.832;4.758;2023-01-25T13:55:45;59.27;;;33.33;;
11614;SDS011;5863;52.832;4.758;2023-01-25T13:58:15;59.53;;;33.63;;
11614;SDS011;5863;52.832;4.758;2023-01-25T14:00:49;53.77;;;32.23;;
11614;SDS011;5863;52.832;4.758;2023-01-25T14:03:19;53.30;;;32.97;;
11614;SDS011;5863;52.832;4.758;2023-01-25T14:05:50;58.30;;;34.20;;
11614;SDS011;5863;52.832;4.758;2023-01-25T14:08:19;59.60;;;35.03;;
11614;SDS011;5863;52.832;4.758;2023-01-25T14:10:46;53.77;;;32.73;;
11614;SDS011;5863;52.832;4.758;2023-01-25T14:13:15;55.63;;;32.70;;
11614;SDS011;5863;52.832;4.758;2023-01-25T14:15:51;58.67;;;33.93;;
11614;SDS011;5863;52.832;4.758;2023-01-25T14:18:19;55.97;;;32.53;;
11614;SDS011;5863;52.832;4.758;2023-01-25T14:20:48;54.43;;;33.00;;
11614;SDS011;5863;52.832;4.758;2023-01-25T14:23:24;60.20;;;34.37;;
11614;SDS011;5863;52.832;4.758;2023-01-25T14:25:52;55.63;;;33.83;;
11614;SDS011;5863;52.832;4.758;2023-01-25T14:28:22;58.23;;;33.87;;
11614;SDS011;5863;52.832;4.758;2023-01-25T14:30:50;60.80;;;34.90;;
11614;SDS011;5863;52.832;4.758;2023-01-25T14:33:21;56.17;;;33.53;;
11614;SDS011;5863;52.832;4.758;2023-01-25T14:35:51;56.47;;;33.30;;
11614;SDS011;5863;52.832;4.758;2023-01-25T14:38:23;42.30;;;27.30;;
11614;SDS011;5863;52.832;4.758;2023-01-25T14:40:53;33.83;;;22.50;;
11614;SDS011;5863;52.832;4.758;2023-01-25T14:43:23;35.13;;;22.20;;
11614;SDS011;5863;52.832;4.758;2023-01-25T14:45:52;30.63;;;20.80;;
11614;SDS011;5863;52.832;4.758;2023-01-25T14:48:35;32.37;;;21.07;;
11614;SDS011;5863;52.832;4.758;2023-01-25T14:51:05;34.27;;;22.07;;
11614;SDS011;5863;52.832;4.758;2023-01-25T14:53:41;30.93;;;21.27;;
11614;SDS011;5863;52.832;4.758;2023-01-25T14:56:22;28.77;;;20.10;;
11614;SDS011;5863;52.832;4.758;2023-01-25T14:58:54;29.00;;;19.60;;
11614;SDS011;5863;52.832;4.758;2023-01-25T15:01:27;31.63;;;20.83;;
11614;SDS011;5863;52.832;4.758;2023-01-25T15:03:57;30.33;;;21.27;;
11614;SDS011;5863;52.832;4.758;2023-01-25T15:06:24;29.03;;;20.83;;